Time;durP1;ratioP1;P1;durP2;ratioP2;P2;SDS_P1;SDS_P2;PMS_P1;PMS_P2;Temp;Humidity;BMP_temperature;BMP_pressure;BME280_temperature;BME280_humidity;BME280_pressure;Samples;Min_cycle;Max_cycle;Signal;HPM_P1;HPM_P2
2022/11/24 00:02:22;;;;;;;8.23;2.35;;;;;;;11.71;67.05;96416.31;4864753;28;20223;-76
2022/11/24 00:04:47;;;;;;;8.55;2.67;;;;;;;11.46;67.03;96426.88;4865602;28;20252;-77
2022/11/24 00:07:12;;;;;;;7.47;2.65;;;;;;;11.60;66.37;96420.03;4861032;29;20630;-78
2022/11/24 00:09:37;;;;;;;9.90;3.08;;;;;;;11.48;67.41;96422.97;4857512;29;20199;-76
2022/11/24 00:12:03;;;;;;;10.18;3.97;;;;;;;11.52;66.59;96429.19;4860040;28;20193;-77
2022/11/24 00:14:28;;;;;;;9.27;3.03;;;;;;;11.16;67.67;96431.19;4873292;28;20207;-76
2022/11/24 00:16:54;;;;;;;13.05;3.55;;;;;;;11.27;68.02;96431.91;4856353;28;20173;-77
2022/11/24 00:19:19;;;;;;;7.93;3.20;;;;;;;11.48;67.19;96441.22;4874186;28;20208;-77
2022/11/24 00:21:44;;;;;;;8.15;3.17;;;;;;;11.63;66.54;96437.75;4874030;28;20224;-77
2022/11/24 00:24:10;;;;;;;10.68;4.05;;;;;;;11.49;66.48;96432.34;4874546;28;20364;-76
2022/11/24 00:26:36;;;;;;;7.18;3.25;;;;;;;10.95;68.90;96444.25;4855461;28;20325;-77
2022/11/24 00:29:03;;;;;;;7.43;3.60;;;;;;;11.29;67.69;96453.25;4856650;29;20224;-77
2022/11/24 00:31:37;;;;;;;9.80;3.72;;;;;;;11.41;67.16;96449.31;4859567;28;20200;-77
2022/11/24 00:34:04;;;;;;;10.15;2.97;;;;;;;11.29;68.06;96461.09;4859398;29;20222;-77
2022/11/24 00:36:31;;;;;;;8.65;3.38;;;;;;;11.53;66.88;96454.22;4858123;29;20174;-77
2022/11/24 00:38:59;;;;;;;9.68;3.28;;;;;;;11.36;67.60;96464.97;4868563;28;20656;-77
2022/11/24 00:41:26;;;;;;;6.63;2.80;;;;;;;11.43;67.38;96462.88;4874671;28;20216;-76
2022/11/24 00:43:52;;;;;;;10.52;3.38;;;;;;;11.56;66.93;96469.31;4870931;28;20702;-76
2022/11/24 00:46:18;;;;;;;9.57;3.92;;;;;;;11.21;67.97;96465.03;4871730;28;20341;-76
2022/11/24 00:48:43;;;;;;;17.10;4.05;;;;;;;11.18;68.65;96466.31;4876227;28;20272;-77
2022/11/24 00:51:10;;;;;;;10.27;2.75;;;;;;;11.44;67.90;96482.66;4864145;29;20192;-77
2022/11/24 00:53:36;;;;;;;8.23;3.20;;;;;;;11.40;67.16;96488.69;4856808;29;20208;-77
2022/11/24 00:56:02;;;;;;;9.40;2.75;;;;;;;11.56;67.26;96476.38;4860473;29;20212;-77
2022/11/24 00:58:28;;;;;;;12.50;3.47;;;;;;;11.30;67.84;96484.28;4854562;29;20350;-77
2022/11/24 01:00:55;;;;;;;10.65;2.70;;;;;;;11.60;66.71;96483.38;4873025;28;20266;-77
2022/11/24 01:03:20;;;;;;;8.90;3.08;;;;;;;11.55;67.50;96488.63;4871583;28;20200;-77
2022/11/24 01:05:45;;;;;;;9.00;2.72;;;;;;;11.42;66.90;96494.41;4877393;28;20213;-77
2022/11/24 01:08:11;;;;;;;9.45;3.35;;;;;;;11.41;67.30;96483.22;4857182;29;20646;-76
2022/11/24 01:10:37;;;;;;;10.50;3.78;;;;;;;11.25;67.50;96485.06;4841037;29;20168;-77
2022/11/24 01:13:02;;;;;;;10.00;2.50;;;;;;;11.65;67.09;96494.84;4878200;28;20219;-77
2022/11/24 01:15:29;;;;;;;7.85;2.45;;;;;;;11.73;66.42;96495.06;4853748;29;20192;-76
2022/11/24 01:17:55;;;;;;;6.88;1.85;;;;;;;11.46;67.32;96492.81;4872389;28;20201;-76
2022/11/24 01:20:20;;;;;;;6.93;2.30;;;;;;;11.54;66.57;96491.50;4873740;28;20357;-77
2022/11/24 01:22:47;;;;;;;6.38;1.98;;;;;;;11.65;66.42;96489.63;4869247;28;20252;-76
2022/11/24 01:25:13;;;;;;;8.70;2.10;;;;;;;11.32;67.43;96499.66;4862144;29;20291;-77
2022/11/24 01:27:38;;;;;;;5.28;2.67;;;;;;;11.55;66.28;96503.47;4869952;28;20594;-77
2022/11/24 01:30:05;;;;;;;6.93;1.90;;;;;;;11.49;66.69;96499.34;4874450;28;20219;-77
2022/11/24 01:32:35;;;;;;;9.05;2.13;;;;;;;11.64;66.48;96496.66;4854329;28;20316;-77
2022/11/24 01:35:01;;;;;;;13.02;3.20;;;;;;;11.35;66.70;96488.69;4855101;28;20200;-76
2022/11/24 01:37:26;;;;;;;10.98;2.97;;;;;;;11.27;67.49;96497.84;4876345;28;20191;-77
2022/11/24 01:39:52;;;;;;;7.65;2.58;;;;;;;11.36;66.98;96482.44;4867286;28;20647;-77
2022/11/24 01:42:17;;;;;;;6.50;2.08;;;;;;;11.06;67.69;96484.84;4865766;28;20203;-76
2022/11/24 01:44:42;;;;;;;9.65;2.45;;;;;;;11.17;67.21;96497.84;4863535;28;20208;-77
2022/11/24 01:47:11;;;;;;;7.43;1.80;;;;;;;11.40;67.51;96496.50;4859110;29;20785;-76
2022/11/24 01:49:44;;;;;;;7.43;2.30;;;;;;;11.38;67.02;96501.22;4860505;29;20263;-77
2022/11/24 01:52:16;;;;;;;8.73;3.38;;;;;;;11.41;66.48;96506.66;4834034;29;20698;-76
2022/11/24 01:54:46;;;;;;;19.48;3.22;;;;;;;11.55;66.48;96501.66;4851250;29;20147;-77
2022/11/24 01:57:26;;;;;;;10.48;2.30;;;;;;;11.58;65.85;96505.56;4873129;28;20211;-77
2022/11/24 01:59:55;;;;;;;9.20;2.97;;;;;;;11.20;66.69;96499.94;4849643;29;20206;-76
2022/11/24 02:02:21;;;;;;;7.30;2.00;;;;;;;11.48;65.87;96505.59;4834518;29;20276;-77
2022/11/24 02:04:47;;;;;;;6.45;2.15;;;;;;;11.59;65.91;96512.34;4852655;29;20268;-77
2022/11/24 02:07:13;;;;;;;10.38;2.72;;;;;;;11.51;65.88;96507.66;4853920;28;20208;-75
2022/11/24 02:09:48;;;;;;;10.07;2.60;;;;;;;11.68;65.91;96502.91;4859774;28;20254;-75
2022/11/24 02:12:14;;;;;;;8.75;1.90;;;;;;;11.43;66.17;96511.63;4850509;29;20302;-75
2022/11/24 02:14:40;;;;;;;7.53;2.72;;;;;;;11.51;65.74;96505.06;4858287;29;20227;-75
2022/11/24 02:17:07;;;;;;;6.95;1.77;;;;;;;10.99;67.37;96501.81;4854749;29;20288;-76
2022/11/24 02:19:38;;;;;;;9.27;2.38;;;;;;;11.24;66.96;96506.97;4868376;28;20244;-75
2022/11/24 02:22:05;;;;;;;8.98;2.22;;;;;;;11.13;66.69;96502.03;4857761;29;20192;-75
2022/11/24 02:24:39;;;;;;;7.50;1.88;;;;;;;11.30;66.30;96504.34;4869783;28;20714;-78
2022/11/24 02:27:04;;;;;;;8.82;2.03;;;;;;;11.27;66.12;96510.84;4868433;28;20094;-75
2022/11/24 02:29:30;;;;;;;8.77;2.30;;;;;;;11.23;66.27;96505.41;4852987;29;20339;-76
2022/11/24 02:31:58;;;;;;;9.55;2.40;;;;;;;11.01;66.94;96504.94;4878795;28;20205;-76
2022/11/24 02:34:24;;;;;;;8.75;1.92;;;;;;;11.32;66.40;96510.84;4860072;29;20196;-76
2022/11/24 02:36:49;;;;;;;10.23;2.53;;;;;;;11.03;67.05;96503.59;4875229;28;20325;-76
2022/11/24 02:39:15;;;;;;;6.18;2.78;;;;;;;11.25;66.51;96520.78;4870223;28;20196;-76
2022/11/24 02:41:43;;;;;;;12.65;2.47;;;;;;;11.32;65.93;96521.28;4858729;28;20298;-76
2022/11/24 02:44:09;;;;;;;6.60;2.60;;;;;;;11.28;66.31;96520.25;4851432;29;20247;-76
2022/11/24 02:46:35;;;;;;;12.80;2.75;;;;;;;11.28;65.93;96517.66;4870637;28;20287;-76
2022/11/24 02:49:00;;;;;;;11.02;3.38;;;;;;;11.20;66.86;96510.38;4852723;28;20319;-76
2022/11/24 02:51:26;;;;;;;9.52;2.42;;;;;;;11.18;66.00;96521.03;4872192;28;20304;-75
2022/11/24 02:53:52;;;;;;;9.63;2.65;;;;;;;11.45;65.39;96522.56;4869521;28;20674;-75
2022/11/24 02:56:17;;;;;;;10.25;2.55;;;;;;;11.33;66.14;96522.84;4875123;28;20248;-76
2022/11/24 02:58:42;;;;;;;11.15;3.60;;;;;;;11.26;66.50;96509.31;4874971;28;20217;-76
2022/11/24 03:01:08;;;;;;;9.38;2.90;;;;;;;11.46;65.50;96500.63;4882924;28;20700;-76
2022/11/24 03:03:33;;;;;;;12.55;2.95;;;;;;;11.33;66.23;96501.22;4857135;28;20488;-75
2022/11/24 03:05:59;;;;;;;9.50;2.83;;;;;;;11.09;66.90;96506.22;4879963;28;20212;-75
2022/11/24 03:08:24;;;;;;;7.68;2.70;;;;;;;11.04;66.67;96504.41;4863587;29;20243;-76
2022/11/24 03:10:49;;;;;;;10.48;2.92;;;;;;;11.03;66.52;96493.19;4873364;28;20212;-75
2022/11/24 03:13:15;;;;;;;9.57;2.40;;;;;;;11.07;66.31;96498.69;4866200;29;20661;-75
2022/11/24 03:15:40;;;;;;;9.77;2.15;;;;;;;11.04;66.76;96509.63;4858473;28;20226;-76
2022/11/24 03:18:06;;;;;;;9.48;2.40;;;;;;;11.25;65.57;96515.56;4862459;29;20347;-76
2022/11/24 03:20:31;;;;;;;13.80;2.97;;;;;;;11.11;66.39;96520.53;4858178;29;20219;-75
2022/11/24 03:22:57;;;;;;;6.93;2.15;;;;;;;11.13;66.16;96517.69;4874452;28;20786;-75
2022/11/24 03:25:22;;;;;;;9.57;3.15;;;;;;;11.12;66.55;96523.91;4877676;28;20720;-75
2022/11/24 03:27:51;;;;;;;13.48;2.13;;;;;;;11.21;66.57;96530.94;4858138;28;20639;-76
2022/11/24 03:30:17;;;;;;;9.35;2.95;;;;;;;11.30;66.16;96528.59;4883272;28;20276;-76
2022/11/24 03:32:42;;;;;;;14.15;2.95;;;;;;;11.15;66.08;96518.97;4874881;28;20239;-76
2022/11/24 03:35:08;;;;;;;12.60;2.63;;;;;;;11.22;66.26;96522.09;4874526;28;20255;-76
2022/11/24 03:37:33;;;;;;;11.88;3.85;;;;;;;10.80;67.45;96522.41;4857800;29;20216;-76
2022/11/24 03:39:59;;;;;;;18.13;3.53;;;;;;;10.80;67.91;96525.78;4868489;28;20179;-76
2022/11/24 03:42:24;;;;;;;18.35;4.22;;;;;;;11.11;67.24;96532.81;4879673;28;20285;-76
2022/11/24 03:44:49;;;;;;;13.30;2.50;;;;;;;11.14;67.12;96524.44;4849559;29;20220;-75
2022/11/24 03:47:15;;;;;;;10.10;2.60;;;;;;;10.60;67.69;96517.97;4863463;28;20667;-76
2022/11/24 03:49:41;;;;;;;12.90;2.60;;;;;;;10.97;67.41;96529.94;4874486;28;20248;-76
2022/11/24 03:52:06;;;;;;;10.05;2.15;;;;;;;10.90;67.27;96521.59;4864531;28;20575;-75
2022/11/24 03:54:32;;;;;;;10.75;2.45;;;;;;;11.18;66.44;96530.69;4862827;29;20181;-76
2022/11/24 03:56:57;;;;;;;11.38;2.40;;;;;;;11.12;66.44;96524.72;4875908;28;20187;-76
2022/11/24 03:59:22;;;;;;;12.43;3.33;;;;;;;11.14;66.96;96534.84;4874961;28;20599;-76
2022/11/24 04:01:48;;;;;;;12.60;3.03;;;;;;;10.98;67.23;96532.28;4874255;28;20228;-75
2022/11/24 04:04:13;;;;;;;14.10;2.08;;;;;;;11.08;67.42;96530.72;4856296;29;20256;-76
2022/11/24 04:06:39;;;;;;;8.90;2.50;;;;;;;10.86;67.73;96532.56;4859444;28;20146;-75
2022/11/24 04:09:05;;;;;;;18.05;2.85;;;;;;;10.95;67.92;96526.81;4875959;28;20200;-75
2022/11/24 04:14:14;;;;;;;17.25;3.53;;;;;;;11.22;66.51;96522.09;4855812;29;20343;-76
2022/11/24 04:16:40;;;;;;;13.32;3.20;;;;;;;11.11;66.75;96524.97;4862750;29;20282;-76
2022/11/24 04:19:05;;;;;;;14.05;2.20;;;;;;;11.23;66.37;96520.25;4857993;29;20191;-75
2022/11/24 04:21:31;;;;;;;15.52;3.35;;;;;;;11.33;66.04;96527.28;4857119;29;20220;-76
2022/11/24 04:23:56;;;;;;;5.35;2.17;;;;;;;11.00;67.38;96527.59;4877355;28;20326;-76
2022/11/24 04:26:22;;;;;;;14.20;2.60;;;;;;;10.24;69.38;96521.28;4877903;28;20709;-75
2022/11/24 04:28:47;;;;;;;13.55;3.05;;;;;;;10.84;68.07;96526.03;4858728;28;20294;-76
2022/11/24 04:31:13;;;;;;;20.20;4.70;;;;;;;10.75;67.70;96525.78;4861014;28;20330;-76
2022/11/24 04:33:38;;;;;;;15.38;2.90;;;;;;;11.18;66.51;96539.28;4846665;29;20208;-76
2022/11/24 04:36:04;;;;;;;13.80;2.70;;;;;;;11.11;66.77;96533.56;4874629;28;20208;-76
2022/11/24 04:38:29;;;;;;;13.38;2.25;;;;;;;11.15;66.61;96534.59;4862227;28;20319;-76
2022/11/24 04:40:54;;;;;;;15.25;2.83;;;;;;;11.11;66.70;96538.78;4846410;29;20288;-76
2022/11/24 04:43:20;;;;;;;15.40;2.92;;;;;;;10.95;67.53;96545.84;4868835;28;20622;-76
2022/11/24 04:45:46;;;;;;;15.85;3.25;;;;;;;11.19;67.30;96546.06;4876796;28;20581;-76
2022/11/24 04:48:11;;;;;;;14.55;2.95;;;;;;;11.25;66.44;96552.81;4869751;28;20345;-76
2022/11/24 04:50:37;;;;;;;17.45;3.15;;;;;;;11.30;66.39;96552.03;4875879;28;20141;-76
2022/11/24 04:53:03;;;;;;;14.70;3.42;;;;;;;11.39;66.16;96553.03;4874313;28;20264;-75
2022/11/24 04:55:28;;;;;;;16.23;2.78;;;;;;;11.36;65.67;96545.78;4877368;28;20326;-75
2022/11/24 04:57:54;;;;;;;15.40;2.92;;;;;;;11.52;65.93;96549.13;4862941;29;20342;-76
2022/11/24 05:00:20;;;;;;;9.90;2.95;;;;;;;11.46;66.00;96552.78;4867843;28;20205;-76
2022/11/24 05:02:46;;;;;;;13.35;3.03;;;;;;;11.37;66.84;96556.97;4869798;28;20236;-76
2022/11/24 05:05:11;;;;;;;9.32;2.83;;;;;;;11.24;67.18;96559.09;4860220;29;20223;-76
2022/11/24 05:07:36;;;;;;;15.23;2.33;;;;;;;11.46;65.93;96563.19;4878048;28;20283;-76
2022/11/24 05:12:54;;;;;;;16.13;4.70;;;;;;;11.53;66.15;96575.97;4855368;29;20327;-76
2022/11/24 05:15:19;;;;;;;12.50;2.72;;;;;;;11.41;66.69;96573.63;4881149;28;20207;-76
2022/11/24 05:17:44;;;;;;;17.67;3.15;;;;;;;11.22;66.97;96576.81;4852818;28;20209;-76
2022/11/24 05:20:10;;;;;;;9.77;2.33;;;;;;;11.51;66.50;96578.06;4879536;28;20271;-76
2022/11/24 05:22:35;;;;;;;13.27;3.22;;;;;;;11.36;66.76;96577.06;4872076;28;20195;-76
2022/11/24 05:25:01;;;;;;;15.70;3.03;;;;;;;11.36;66.21;96584.88;4871169;28;20480;-76
2022/11/24 05:27:26;;;;;;;14.32;3.00;;;;;;;11.33;66.77;96585.41;4862378;29;20633;-76
2022/11/24 05:29:51;;;;;;;10.00;2.38;;;;;;;11.35;66.74;96592.97;4868430;28;20369;-76
2022/11/24 05:32:17;;;;;;;11.35;2.72;;;;;;;11.31;66.08;96592.69;4880247;28;20207;-76
2022/11/24 05:34:42;;;;;;;15.98;2.97;;;;;;;11.38;66.33;96597.66;4872407;28;20129;-76
2022/11/24 05:37:07;;;;;;;10.75;2.65;;;;;;;11.50;65.76;96611.19;4855353;29;20304;-76
2022/11/24 05:39:34;;;;;;;13.50;3.38;;;;;;;11.40;66.47;96604.16;4849480;29;20240;-76
2022/11/24 05:42:39;;;;;;;15.10;2.60;;;;;;;11.19;67.94;96613.03;4872407;28;20275;-76
2022/11/24 05:44:50;;;;;;;14.85;2.80;;;;;;;11.29;67.06;96617.44;4845007;28;20223;-75
2022/11/24 05:47:16;;;;;;;12.82;2.30;;;;;;;11.17;66.84;96620.31;4857696;28;20201;-75
2022/11/24 05:49:41;;;;;;;11.80;2.67;;;;;;;11.25;66.77;96630.22;4880508;28;20184;-76
2022/11/24 05:52:07;;;;;;;9.05;2.00;;;;;;;11.39;66.80;96626.03;4866515;28;20193;-76
2022/11/24 05:54:32;;;;;;;10.40;2.15;;;;;;;11.28;66.81;96628.94;4860186;29;20187;-76
2022/11/24 05:56:57;;;;;;;7.95;1.55;;;;;;;11.35;66.50;96629.44;4865912;28;20212;-76
2022/11/24 05:59:23;;;;;;;11.48;2.22;;;;;;;11.37;66.53;96633.34;4855944;29;20169;-76
2022/11/24 06:01:48;;;;;;;9.88;2.78;;;;;;;11.23;66.65;96624.50;4856534;29;20172;-76
2022/11/24 06:04:14;;;;;;;11.68;3.03;;;;;;;11.33;66.52;96615.91;4871515;28;20211;-75
2022/11/24 06:06:39;;;;;;;11.52;2.10;;;;;;;11.34;66.69;96626.03;4875305;28;20220;-76
2022/11/24 06:09:04;;;;;;;11.55;2.42;;;;;;;11.25;66.71;96617.97;4872870;28;20112;-76
2022/11/24 06:11:30;;;;;;;10.40;2.17;;;;;;;11.41;66.72;96616.16;4873173;28;20385;-76
2022/11/24 06:13:55;;;;;;;7.10;1.88;;;;;;;11.23;67.43;96616.69;4860512;29;20188;-75
2022/11/24 06:16:21;;;;;;;9.90;2.28;;;;;;;11.35;66.93;96624.22;4868116;28;20259;-76
2022/11/24 06:18:46;;;;;;;7.50;2.05;;;;;;;11.24;67.18;96618.22;4854753;28;20207;-76
2022/11/24 06:21:12;;;;;;;7.68;2.30;;;;;;;11.30;67.10;96630.22;4869809;28;20206;-76
2022/11/24 06:23:37;;;;;;;9.10;1.80;;;;;;;11.12;66.89;96625.53;4876307;28;20179;-75
2022/11/24 06:26:03;;;;;;;11.23;2.30;;;;;;;11.34;66.75;96636.47;4866455;28;20191;-76
2022/11/24 06:28:29;;;;;;;16.80;2.88;;;;;;;11.43;66.46;96631.53;4858574;29;20208;-76
2022/11/24 06:30:54;;;;;;;9.95;3.03;;;;;;;11.13;66.99;96621.91;4854435;28;20245;-75
2022/11/24 06:33:19;;;;;;;10.70;3.17;;;;;;;11.30;66.86;96635.44;4874322;28;20130;-75
2022/11/24 06:35:45;;;;;;;8.63;2.30;;;;;;;11.33;66.91;96632.31;4861242;28;20720;-75
2022/11/24 06:38:10;;;;;;;9.15;2.08;;;;;;;11.39;67.06;96635.69;4874246;28;20348;-76
2022/11/24 06:40:35;;;;;;;7.38;2.33;;;;;;;11.37;66.81;96641.16;4872798;28;20212;-76
2022/11/24 06:43:01;;;;;;;7.43;2.20;;;;;;;11.17;67.14;96651.59;4863592;29;20285;-76
2022/11/24 06:45:26;;;;;;;8.45;2.47;;;;;;;11.04;67.64;96651.06;4853468;28;20193;-75
2022/11/24 06:47:55;;;;;;;10.23;2.50;;;;;;;11.32;67.14;96658.63;4877302;28;20321;-76
2022/11/24 06:50:21;;;;;;;8.63;3.05;;;;;;;11.33;67.52;96652.38;4817130;29;1257631;-76
2022/11/24 06:52:47;;;;;;;8.45;2.90;;;;;;;11.39;66.87;96659.16;4861797;29;20772;-75
2022/11/24 06:55:13;;;;;;;7.15;2.22;;;;;;;11.34;66.88;96665.13;4879566;28;20359;-75
2022/11/24 06:57:38;;;;;;;8.73;1.90;;;;;;;11.44;66.91;96667.72;4878273;28;20784;-76
2022/11/24 07:00:04;;;;;;;8.07;2.15;;;;;;;11.44;66.68;96665.13;4867270;29;20347;-76
2022/11/24 07:02:30;;;;;;;9.38;2.28;;;;;;;11.48;67.11;96665.41;4833524;29;20215;-76
2022/11/24 07:04:55;;;;;;;7.97;2.40;;;;;;;11.39;67.28;96669.56;4863918;29;20271;-76
2022/11/24 07:07:21;;;;;;;10.25;3.45;;;;;;;11.31;66.88;96683.91;4860572;29;20166;-76
2022/11/24 07:09:46;;;;;;;10.63;2.20;;;;;;;10.92;68.43;96681.78;4872172;28;20341;-76
2022/11/24 07:12:11;;;;;;;14.18;2.88;;;;;;;10.93;68.72;96683.34;4876941;28;20634;-75
2022/11/24 07:14:37;;;;;;;10.85;2.92;;;;;;;11.33;67.37;96684.44;4876444;28;20215;-76
2022/11/24 07:17:03;;;;;;;12.18;3.05;;;;;;;11.43;67.12;96684.44;4873582;28;20339;-76
2022/11/24 07:19:29;;;;;;;12.13;2.70;;;;;;;11.46;66.93;96687.56;4855013;28;20275;-76
2022/11/24 07:21:54;;;;;;;14.57;3.20;;;;;;;11.18;67.35;96690.41;4877826;28;20805;-75
2022/11/24 07:24:20;;;;;;;11.25;2.60;;;;;;;11.11;67.81;96691.72;4858396;29;20161;-75
2022/11/24 07:26:45;;;;;;;10.25;2.58;;;;;;;11.41;66.71;96706.56;4877330;28;20608;-76
2022/11/24 07:29:10;;;;;;;11.25;3.50;;;;;;;11.38;66.47;96707.91;4852661;28;20200;-76
2022/11/24 07:31:36;;;;;;;12.93;2.25;;;;;;;11.34;66.65;96722.47;4880505;28;20196;-75
2022/11/24 07:34:01;;;;;;;12.25;2.83;;;;;;;11.29;67.06;96725.06;4871190;28;20196;-76
2022/11/24 07:36:26;;;;;;;8.45;2.20;;;;;;;11.55;66.52;96732.91;4853806;29;20169;-76
2022/11/24 07:38:52;;;;;;;15.07;3.20;;;;;;;11.55;66.42;96735.50;4856213;29;20358;-76
2022/11/24 07:41:18;;;;;;;8.88;2.65;;;;;;;11.43;66.92;96739.19;4879225;28;20248;-75
2022/11/24 07:43:44;;;;;;;9.43;2.63;;;;;;;11.43;66.96;96746.22;4880418;28;20638;-76
2022/11/24 07:46:12;;;;;;;8.60;2.17;;;;;;;11.53;66.29;96746.22;4837466;29;20211;-76
2022/11/24 07:48:38;;;;;;;12.52;2.75;;;;;;;11.32;66.79;96755.06;4852830;29;20434;-76
2022/11/24 07:51:04;;;;;;;9.52;2.55;;;;;;;11.49;66.71;96760.03;4879842;28;20220;-76
2022/11/24 07:53:30;;;;;;;11.13;2.35;;;;;;;11.47;66.45;96764.72;4867976;28;20234;-76
2022/11/24 07:55:59;;;;;;;9.02;2.20;;;;;;;11.43;66.48;96760.03;4885586;28;20664;-76
2022/11/24 07:58:25;;;;;;;8.27;2.47;;;;;;;11.01;67.33;96776.63;4869680;28;20279;-75
2022/11/24 08:00:51;;;;;;;7.32;1.92;;;;;;;11.34;66.42;96777.22;4865140;29;20780;-75
2022/11/24 08:03:16;;;;;;;9.73;2.55;;;;;;;11.62;66.51;96777.78;4865386;29;20260;-76
2022/11/24 08:05:42;;;;;;;8.55;1.80;;;;;;;11.65;66.34;96784.28;4866854;29;20712;-76
2022/11/24 08:08:07;;;;;;;7.53;2.05;;;;;;;11.66;66.31;96791.84;4885435;28;20223;-76
2022/11/24 08:10:32;;;;;;;7.70;2.05;;;;;;;11.49;66.33;96783.50;4885079;28;20165;-76
2022/11/24 08:13:01;;;;;;;9.70;1.90;;;;;;;11.66;66.39;96780.66;4884876;28;20664;-76
2022/11/24 08:15:26;;;;;;;11.20;2.40;;;;;;;11.77;65.70;96779.59;4885478;28;20658;-76
2022/11/24 08:17:52;;;;;;;9.32;2.88;;;;;;;11.74;66.39;96788.72;4878966;28;20181;-76
2022/11/24 08:20:17;;;;;;;9.40;2.05;;;;;;;11.74;65.61;96787.97;4881502;28;20096;-76
2022/11/24 08:22:43;;;;;;;7.57;1.50;;;;;;;11.71;65.35;96784.03;4871186;28;20168;-76
2022/11/24 08:25:09;;;;;;;8.00;2.00;;;;;;;11.87;65.89;96782.19;4884980;28;20112;-76
2022/11/24 08:27:34;;;;;;;11.68;2.25;;;;;;;11.65;66.21;96785.06;4876701;28;20700;-75
2022/11/24 08:30:00;;;;;;;8.93;2.33;;;;;;;11.87;66.23;96784.03;4870673;28;20168;-76
2022/11/24 08:32:25;;;;;;;6.28;1.60;;;;;;;11.73;66.12;96778.56;4884771;28;20594;-76
2022/11/24 08:34:50;;;;;;;8.57;1.90;;;;;;;11.92;65.64;96789.28;4884769;28;20203;-75
2022/11/24 08:37:16;;;;;;;7.05;2.05;;;;;;;11.85;66.02;96794.72;4885282;28;20289;-76
2022/11/24 08:39:41;;;;;;;9.73;1.40;;;;;;;11.94;65.47;96787.19;4862376;28;20770;-76
2022/11/24 08:42:06;;;;;;;8.15;1.38;;;;;;;11.77;65.69;96790.03;4884714;28;20219;-75
2022/11/24 08:44:32;;;;;;;8.68;2.38;;;;;;;11.72;65.46;96797.84;4877975;28;20270;-77
2022/11/24 08:46:57;;;;;;;8.38;1.63;;;;;;;11.93;64.90;96801.28;4879986;28;20776;-76
2022/11/24 08:49:23;;;;;;;5.28;1.67;;;;;;;11.93;64.86;96816.94;4856233;29;20212;-76
2022/11/24 08:51:50;;;;;;;6.10;2.42;;;;;;;12.02;64.34;96810.13;4866528;28;20238;-76
2022/11/24 08:54:17;;;;;;;7.80;1.98;;;;;;;12.01;64.72;96821.59;4877510;28;20173;-75
2022/11/24 08:56:43;;;;;;;9.85;1.63;;;;;;;11.92;65.18;96823.97;4870462;28;20138;-76
2022/11/24 08:59:12;;;;;;;9.15;2.08;;;;;;;12.01;65.20;96839.09;4868203;29;20653;-76
2022/11/24 09:01:38;;;;;;;7.80;1.80;;;;;;;12.14;64.71;96838.56;4846630;28;20177;-75
2022/11/24 09:04:04;;;;;;;7.30;2.10;;;;;;;12.28;64.39;96857.09;4884579;28;20191;-76
2022/11/24 09:06:29;;;;;;;8.25;2.47;;;;;;;12.36;63.81;96851.34;4860641;28;20204;-76
2022/11/24 09:08:55;;;;;;;6.40;1.23;;;;;;;12.36;63.74;96856.56;4863982;29;20339;-76
2022/11/24 09:11:22;;;;;;;9.77;3.05;;;;;;;12.45;62.80;96854.97;4876136;28;20641;-75
2022/11/24 09:13:47;;;;;;;9.13;1.90;;;;;;;12.42;63.42;96865.16;4884293;28;20206;-76
2022/11/24 09:16:18;;;;;;;5.22;1.75;;;;;;;12.35;64.33;96866.25;4868629;29;20301;-76
2022/11/24 09:18:44;;;;;;;4.82;2.38;;;;;;;12.33;63.43;96868.31;4865111;29;20645;-76
2022/11/24 09:21:14;;;;;;;7.57;1.80;;;;;;;12.50;62.63;96859.41;4884321;28;20664;-76
2022/11/24 09:23:41;;;;;;;7.30;1.60;;;;;;;12.57;62.21;96865.16;4884226;28;20290;-76
2022/11/24 09:26:09;;;;;;;6.10;1.58;;;;;;;12.55;62.50;96869.84;4883889;28;20286;-76
2022/11/24 09:28:34;;;;;;;7.78;2.33;;;;;;;12.50;62.30;96867.25;4884235;28;20230;-76
2022/11/24 09:31:01;;;;;;;11.65;1.80;;;;;;;12.57;62.30;96872.22;4883618;28;20642;-76
2022/11/24 09:33:27;;;;;;;9.52;2.28;;;;;;;12.68;61.84;96882.38;4884104;28;20242;-75
2022/11/24 09:35:52;;;;;;;11.80;2.03;;;;;;;12.65;61.83;96884.72;4884076;28;20822;-76
2022/11/24 09:38:18;;;;;;;7.15;1.15;;;;;;;12.64;62.18;96878.69;4877420;28;20187;-76
2022/11/24 09:40:43;;;;;;;7.68;1.48;;;;;;;12.62;62.26;96890.47;4883445;28;20215;-76
2022/11/24 09:43:24;;;;;;;8.90;2.40;;;;;;;12.72;62.60;96891.22;4883765;28;20717;-75
2022/11/24 09:46:08;;;;;;;8.30;2.03;;;;;;;12.54;62.38;96894.38;4877617;28;20195;-76
2022/11/24 09:48:38;;;;;;;4.68;1.55;;;;;;;12.79;61.58;96895.41;4879030;28;20332;-76
2022/11/24 09:51:04;;;;;;;6.50;1.75;;;;;;;12.35;62.20;96892.34;4850500;29;20645;-76
2022/11/24 09:54:01;;;;;;;5.78;1.52;;;;;;;12.56;62.05;96900.16;4867562;29;20160;-75
2022/11/24 09:56:28;;;;;;;7.80;2.05;;;;;;;12.60;62.65;96903.78;4859519;28;20646;-76
2022/11/24 09:59:01;;;;;;;8.90;1.75;;;;;;;12.48;63.18;96903.28;4851628;29;20240;-76
2022/11/24 10:01:32;;;;;;;6.93;1.75;;;;;;;12.47;63.17;96902.50;4868112;28;20179;-76
2022/11/24 10:03:57;;;;;;;5.80;1.73;;;;;;;12.40;62.77;96912.44;4883346;28;20200;-76
2022/11/24 10:06:49;;;;;;;5.10;1.90;;;;;;;12.63;61.87;96913.72;4883522;28;20190;-76
2022/11/24 10:09:45;;;;;;;7.65;1.52;;;;;;;12.71;62.73;96909.78;4865731;29;20649;-76
2022/11/24 10:12:40;;;;;;;4.03;1.83;;;;;;;12.39;62.51;96910.88;4864822;28;20298;-76
2022/11/24 10:15:18;;;;;;;6.95;1.90;;;;;;;12.81;61.56;96916.81;4883590;28;20281;-76
2022/11/24 10:18:01;;;;;;;6.75;1.50;;;;;;;12.95;61.26;96920.44;4858617;29;20223;-76
2022/11/24 10:20:34;;;;;;;12.55;3.00;;;;;;;13.03;61.46;96921.75;4864366;29;20243;-76
2022/11/24 10:23:17;;;;;;;7.50;2.58;;;;;;;13.06;61.87;96921.22;4883051;28;20199;-76
2022/11/24 10:26:05;;;;;;;5.57;1.70;;;;;;;13.16;60.59;96923.78;4883424;28;20385;-76
2022/11/24 10:28:36;;;;;;;10.20;2.10;;;;;;;13.15;60.81;96924.84;4883255;28;20382;-76
2022/11/24 10:31:31;;;;;;;10.13;1.50;;;;;;;13.36;59.76;96930.78;4883370;28;20831;-76
2022/11/24 10:34:01;;;;;;;7.57;2.28;;;;;;;13.09;60.52;96931.91;4850959;29;20210;-75
2022/11/24 10:36:44;;;;;;;5.13;1.23;;;;;;;13.33;59.83;96935.78;4851238;28;20219;-76
2022/11/24 10:39:16;;;;;;;4.97;1.27;;;;;;;13.18;60.15;96937.38;4879115;28;20708;-75
2022/11/24 10:41:47;;;;;;;6.38;1.60;;;;;;;13.30;59.37;96943.09;4882994;28;20166;-76
2022/11/24 10:44:13;;;;;;;6.82;1.88;;;;;;;13.26;58.70;96949.91;4845910;28;20259;-76
2022/11/24 10:46:39;;;;;;;5.90;1.75;;;;;;;13.29;59.03;96949.34;4883376;28;20205;-76
2022/11/24 10:49:05;;;;;;;8.35;1.88;;;;;;;13.14;60.00;96953.84;4860760;28;20246;-76
2022/11/24 10:52:00;;;;;;;8.55;2.10;;;;;;;13.64;58.17;96957.34;4867005;29;20641;-76
2022/11/24 10:54:26;;;;;;;7.33;1.40;;;;;;;13.45;58.36;96949.31;4882943;28;20338;-76
2022/11/24 10:56:52;;;;;;;5.57;1.95;;;;;;;13.30;58.99;96947.53;4882759;28;20242;-75
2022/11/24 10:59:24;;;;;;;10.68;1.65;;;;;;;13.37;58.73;96948.06;4882827;28;20199;-75
2022/11/24 11:01:51;;;;;;;8.27;1.92;;;;;;;13.26;59.11;96947.28;4882635;28;20657;-75
2022/11/24 11:04:24;;;;;;;9.70;1.90;;;;;;;13.45;58.45;96957.16;4867185;28;20222;-76
2022/11/24 11:06:49;;;;;;;6.53;1.70;;;;;;;13.03;60.03;96950.50;4883163;28;20302;-76
2022/11/24 11:09:17;;;;;;;9.43;2.30;;;;;;;13.20;59.13;96953.56;4882207;28;20692;-76
2022/11/24 11:11:45;;;;;;;6.78;2.00;;;;;;;13.22;59.19;96943.63;4864775;28;20231;-76
2022/11/24 11:14:11;;;;;;;8.98;1.63;;;;;;;12.81;60.61;96948.19;4882928;28;20223;-76
2022/11/24 11:16:45;;;;;;;8.25;1.58;;;;;;;12.99;59.33;96942.41;4868715;28;20195;-75
2022/11/24 11:19:32;;;;;;;4.20;1.70;;;;;;;13.06;59.93;96953.34;4883805;28;20387;-76
2022/11/24 11:22:00;;;;;;;5.18;1.45;;;;;;;13.09;59.94;96950.22;4886106;28;20396;-75
2022/11/24 11:24:26;;;;;;;8.20;2.65;;;;;;;13.00;58.95;96943.16;4886159;28;20195;-76
2022/11/24 11:26:59;;;;;;;9.13;2.30;;;;;;;13.19;59.66;96938.16;4838952;29;20203;-76
2022/11/24 11:29:26;;;;;;;6.40;1.75;;;;;;;13.14;60.40;96941.56;4872101;28;20375;-76
2022/11/24 11:31:57;;;;;;;7.82;1.80;;;;;;;13.24;60.13;96954.59;4880290;28;20137;-76
2022/11/24 11:34:22;;;;;;;6.53;1.63;;;;;;;13.34;59.89;96953.81;4869621;29;20330;-75
2022/11/24 11:36:49;;;;;;;8.40;1.95;;;;;;;13.35;59.61;96958.00;4885946;28;20360;-76